sensor_id;sensor_type;location;lat;lon;timestamp;P1;durP1;ratioP1;P2;durP2;ratioP2
15114;SDS011;7658;51.456;7.622;2023-06-22T00:00:52;8.40;;;6.80;;
15114;SDS011;7658;51.456;7.622;2023-06-22T00:03:18;10.32;;;6.45;;
15114;SDS011;7658;51.456;7.622;2023-06-22T00:05:45;8.73;;;7.03;;
15114;SDS011;7658;51.456;7.622;2023-06-22T00:08:12;8.13;;;5.80;;
15114;SDS011;7658;51.456;7.622;2023-06-22T00:10:38;11.27;;;7.00;;
15114;SDS011;7658;51.456;7.622;2023-06-22T00:13:05;10.73;;;8.02;;
15114;SDS011;7658;51.456;7.622;2023-06-22T00:15:32;9.95;;;6.65;;
15114;SDS011;7658;51.456;7.622;2023-06-22T00:17:58;10.32;;;7.75;;
15114;SDS011;7658;51.456;7.622;2023-06-22T00:20:24;9.27;;;7.90;;
15114;SDS011;7658;51.456;7.622;2023-06-22T00:22:55;11.30;;;6.95;;
15114;SDS011;7658;51.456;7.622;2023-06-22T00:25:21;10.05;;;7.65;;
15114;SDS011;7658;51.456;7.622;2023-06-22T00:27:47;11.10;;;7.88;;
15114;SDS011;7658;51.456;7.622;2023-06-22T00:30:15;10.38;;;7.57;;
15114;SDS011;7658;51.456;7.622;2023-06-22T00:32:42;9.77;;;8.18;;
15114;SDS011;7658;51.456;7.622;2023-06-22T00:35:08;15.15;;;8.07;;
15114;SDS011;7658;51.456;7.622;2023-06-22T00:37:35;11.48;;;7.97;;
15114;SDS011;7658;51.456;7.622;2023-06-22T00:40:02;8.90;;;7.65;;
15114;SDS011;7658;51.456;7.622;2023-06-22T00:42:29;15.23;;;8.80;;
15114;SDS011;7658;51.456;7.622;2023-06-22T00:44:55;10.57;;;8.43;;
15114;SDS011;7658;51.456;7.622;2023-06-22T00:47:21;9.02;;;8.07;;
15114;SDS011;7658;51.456;7.622;2023-06-22T00:49:48;9.25;;;7.30;;
15114;SDS011;7658;51.456;7.622;2023-06-22T00:52:19;9.65;;;7.70;;
15114;SDS011;7658;51.456;7.622;2023-06-22T00:54:47;9.75;;;7.32;;
15114;SDS011;7658;51.456;7.622;2023-06-22T00:57:14;9.75;;;7.47;;
15114;SDS011;7658;51.456;7.622;2023-06-22T00:59:43;13.57;;;7.88;;
15114;SDS011;7658;51.456;7.622;2023-06-22T01:02:10;8.98;;;7.80;;
15114;SDS011;7658;51.456;7.622;2023-06-22T01:04:36;8.90;;;7.53;;
15114;SDS011;7658;51.456;7.622;2023-06-22T01:12:40;10.23;;;7.25;;
15114;SDS011;7658;51.456;7.622;2023-06-22T01:15:11;10.38;;;7.55;;
15114;SDS011;7658;51.456;7.622;2023-06-22T01:17:43;9.70;;;7.68;;
15114;SDS011;7658;51.456;7.622;2023-06-22T01:20:10;9.15;;;7.70;;
15114;SDS011;7658;51.456;7.622;2023-06-22T01:31:06;11.13;;;8.23;;
15114;SDS011;7658;51.456;7.622;2023-06-22T01:33:35;9.85;;;7.50;;
15114;SDS011;7658;51.456;7.622;2023-06-22T01:36:04;8.95;;;7.47;;
15114;SDS011;7658;51.456;7.622;2023-06-22T01:38:31;13.07;;;7.57;;
15114;SDS011;7658;51.456;7.622;2023-06-22T01:40:58;9.20;;;7.22;;
15114;SDS011;7658;51.456;7.622;2023-06-22T01:43:26;9.88;;;7.30;;
15114;SDS011;7658;51.456;7.622;2023-06-22T01:45:53;11.93;;;8.32;;
15114;SDS011;7658;51.456;7.622;2023-06-22T01:48:20;8.70;;;7.50;;
15114;SDS011;7658;51.456;7.622;2023-06-22T01:50:47;9.43;;;6.85;;
15114;SDS011;7658;51.456;7.622;2023-06-22T01:53:13;10.50;;;7.55;;
15114;SDS011;7658;51.456;7.622;2023-06-22T01:55:39;10.45;;;7.78;;
15114;SDS011;7658;51.456;7.622;2023-06-22T01:58:05;8.95;;;7.50;;
15114;SDS011;7658;51.456;7.622;2023-06-22T02:00:31;10.98;;;8.30;;
15114;SDS011;7658;51.456;7.622;2023-06-22T02:03:19;9.80;;;7.10;;
15114;SDS011;7658;51.456;7.622;2023-06-22T02:05:55;11.02;;;7.80;;
15114;SDS011;7658;51.456;7.622;2023-06-22T02:08:29;10.27;;;8.13;;
15114;SDS011;7658;51.456;7.622;2023-06-22T02:11:00;9.50;;;7.43;;
15114;SDS011;7658;51.456;7.622;2023-06-22T02:13:27;8.30;;;7.15;;
15114;SDS011;7658;51.456;7.622;2023-06-22T02:15:53;10.60;;;7.22;;
15114;SDS011;7658;51.456;7.622;2023-06-22T02:18:19;9.50;;;7.53;;
15114;SDS011;7658;51.456;7.622;2023-06-22T02:20:45;11.73;;;7.45;;
15114;SDS011;7658;51.456;7.622;2023-06-22T02:23:11;11.25;;;7.57;;
15114;SDS011;7658;51.456;7.622;2023-06-22T02:25:37;12.38;;;7.88;;
15114;SDS011;7658;51.456;7.622;2023-06-22T02:28:03;9.52;;;7.47;;
15114;SDS011;7658;51.456;7.622;2023-06-22T02:30:29;9.43;;;7.47;;
15114;SDS011;7658;51.456;7.622;2023-06-22T02:32:55;11.27;;;8.15;;
15114;SDS011;7658;51.456;7.622;2023-06-22T02:35:27;10.65;;;8.70;;
15114;SDS011;7658;51.456;7.622;2023-06-22T02:37:56;11.90;;;8.52;;
15114;SDS011;7658;51.456;7.622;2023-06-22T02:40:26;11.82;;;8.18;;
15114;SDS011;7658;51.456;7.622;2023-06-22T02:42:51;12.00;;;7.75;;
15114;SDS011;7658;51.456;7.622;2023-06-22T02:45:18;12.25;;;8.68;;
15114;SDS011;7658;51.456;7.622;2023-06-22T02:47:44;12.80;;;8.38;;
15114;SDS011;7658;51.456;7.622;2023-06-22T02:50:10;11.48;;;8.82;;
15114;SDS011;7658;51.456;7.622;2023-06-22T02:52:36;11.30;;;8.27;;
15114;SDS011;7658;51.456;7.622;2023-06-22T02:55:01;13.45;;;8.48;;
15114;SDS011;7658;51.456;7.622;2023-06-22T02:57:27;11.15;;;8.68;;
15114;SDS011;7658;51.456;7.622;2023-06-22T02:59:53;12.75;;;8.40;;
15114;SDS011;7658;51.456;7.622;2023-06-22T03:02:20;12.50;;;8.60;;
15114;SDS011;7658;51.456;7.622;2023-06-22T03:04:46;11.48;;;8.02;;
15114;SDS011;7658;51.456;7.622;2023-06-22T03:07:14;10.90;;;7.97;;
15114;SDS011;7658;51.456;7.622;2023-06-22T03:09:40;12.65;;;8.30;;
15114;SDS011;7658;51.456;7.622;2023-06-22T03:12:08;14.30;;;8.45;;
15114;SDS011;7658;51.456;7.622;2023-06-22T03:14:34;12.57;;;8.65;;
15114;SDS011;7658;51.456;7.622;2023-06-22T03:16:59;13.93;;;8.45;;
15114;SDS011;7658;51.456;7.622;2023-06-22T03:19:28;13.38;;;9.18;;
15114;SDS011;7658;51.456;7.622;2023-06-22T03:21:57;11.57;;;9.23;;
15114;SDS011;7658;51.456;7.622;2023-06-22T03:24:26;12.15;;;8.85;;
15114;SDS011;7658;51.456;7.622;2023-06-22T03:26:54;12.95;;;9.07;;
15114;SDS011;7658;51.456;7.622;2023-06-22T03:29:21;11.98;;;9.27;;
15114;SDS011;7658;51.456;7.622;2023-06-22T03:31:47;12.65;;;9.13;;
15114;SDS011;7658;51.456;7.622;2023-06-22T03:34:13;12.18;;;8.63;;
15114;SDS011;7658;51.456;7.622;2023-06-22T03:36:39;11.75;;;8.40;;
15114;SDS011;7658;51.456;7.622;2023-06-22T03:39:04;12.25;;;9.48;;
15114;SDS011;7658;51.456;7.622;2023-06-22T03:41:30;13.85;;;9.30;;
15114;SDS011;7658;51.456;7.622;2023-06-22T03:43:56;15.55;;;8.82;;
15114;SDS011;7658;51.456;7.622;2023-06-22T03:46:21;12.55;;;8.45;;
15114;SDS011;7658;51.456;7.622;2023-06-22T03:48:47;15.70;;;8.50;;
15114;SDS011;7658;51.456;7.622;2023-06-22T03:51:13;10.43;;;8.43;;
15114;SDS011;7658;51.456;7.622;2023-06-22T03:53:39;11.82;;;8.43;;
15114;SDS011;7658;51.456;7.622;2023-06-22T03:56:04;14.90;;;9.15;;
15114;SDS011;7658;51.456;7.622;2023-06-22T03:58:30;16.38;;;8.70;;
15114;SDS011;7658;51.456;7.622;2023-06-22T04:00:57;12.15;;;9.02;;
15114;SDS011;7658;51.456;7.622;2023-06-22T04:03:25;16.48;;;9.55;;
15114;SDS011;7658;51.456;7.622;2023-06-22T04:05:51;14.95;;;10.23;;
15114;SDS011;7658;51.456;7.622;2023-06-22T04:08:17;16.02;;;9.02;;
15114;SDS011;7658;51.456;7.622;2023-06-22T04:10:43;11.60;;;8.90;;
15114;SDS011;7658;51.456;7.622;2023-06-22T04:13:09;11.93;;;8.95;;
15114;SDS011;7658;51.456;7.622;2023-06-22T04:15:35;11.38;;;9.02;;
15114;SDS011;7658;51.456;7.622;2023-06-22T04:18:01;15.82;;;9.02;;
15114;SDS011;7658;51.456;7.622;2023-06-22T04:20:27;14.13;;;9.65;;
15114;SDS011;7658;51.456;7.622;2023-06-22T04:22:53;12.00;;;9.05;;
15114;SDS011;7658;51.456;7.622;2023-06-22T04:25:19;12.90;;;8.70;;
15114;SDS011;7658;51.456;7.622;2023-06-22T04:27:46;14.13;;;9.25;;
15114;SDS011;7658;51.456;7.622;2023-06-22T04:30:12;14.02;;;9.57;;
15114;SDS011;7658;51.456;7.622;2023-06-22T04:32:40;14.65;;;9.48;;
15114;SDS011;7658;51.456;7.622;2023-06-22T04:35:06;17.15;;;9.48;;
15114;SDS011;7658;51.456;7.622;2023-06-22T04:37:32;16.17;;;9.50;;
15114;SDS011;7658;51.456;7.622;2023-06-22T04:39:58;17.25;;;10.48;;
15114;SDS011;7658;51.456;7.622;2023-06-22T04:42:27;15.40;;;10.30;;
15114;SDS011;7658;51.456;7.622;2023-06-22T04:44:53;15.73;;;10.52;;
15114;SDS011;7658;51.456;7.622;2023-06-22T04:47:19;18.13;;;10.05;;
15114;SDS011;7658;51.456;7.622;2023-06-22T04:49:45;17.10;;;10.10;;
15114;SDS011;7658;51.456;7.622;2023-06-22T04:52:11;16.20;;;11.05;;
15114;SDS011;7658;51.456;7.622;2023-06-22T04:54:39;18.55;;;10.77;;
15114;SDS011;7658;51.456;7.622;2023-06-22T04:57:13;13.95;;;11.13;;
15114;SDS011;7658;51.456;7.622;2023-06-22T04:59:41;17.75;;;10.68;;
15114;SDS011;7658;51.456;7.622;2023-06-22T05:02:07;17.38;;;11.52;;
15114;SDS011;7658;51.456;7.622;2023-06-22T05:04:33;17.02;;;11.88;;
15114;SDS011;7658;51.456;7.622;2023-06-22T05:07:00;15.57;;;11.63;;
15114;SDS011;7658;51.456;7.622;2023-06-22T05:09:28;23.35;;;14.05;;
15114;SDS011;7658;51.456;7.622;2023-06-22T05:11:54;22.60;;;15.48;;
15114;SDS011;7658;51.456;7.622;2023-06-22T05:14:21;25.98;;;16.92;;
15114;SDS011;7658;51.456;7.622;2023-06-22T05:16:48;24.00;;;16.70;;
15114;SDS011;7658;51.456;7.622;2023-06-22T05:19:14;25.92;;;18.63;;
15114;SDS011;7658;51.456;7.622;2023-06-22T05:21:40;26.98;;;19.40;;
15114;SDS011;7658;51.456;7.622;2023-06-22T05:24:05;26.05;;;17.75;;
15114;SDS011;7658;51.456;7.622;2023-06-22T05:26:32;26.77;;;19.65;;
15114;SDS011;7658;51.456;7.622;2023-06-22T05:28:59;27.27;;;19.92;;
15114;SDS011;7658;51.456;7.622;2023-06-22T05:31:26;28.05;;;20.88;;
15114;SDS011;7658;51.456;7.622;2023-06-22T05:33:52;25.27;;;20.90;;
15114;SDS011;7658;51.456;7.622;2023-06-22T05:36:19;24.27;;;20.17;;
15114;SDS011;7658;51.456;7.622;2023-06-22T05:38:46;25.65;;;21.20;;
15114;SDS011;7658;51.456;7.622;2023-06-22T05:41:12;25.20;;;20.77;;
15114;SDS011;7658;51.456;7.622;2023-06-22T05:43:37;27.02;;;21.80;;
15114;SDS011;7658;51.456;7.622;2023-06-22T05:46:03;26.20;;;21.92;;
15114;SDS011;7658;51.456;7.622;2023-06-22T05:48:29;26.33;;;20.42;;
15114;SDS011;7658;51.456;7.622;2023-06-22T05:50:56;32.22;;;22.52;;
15114;SDS011;7658;51.456;7.622;2023-06-22T05:53:22;23.77;;;19.52;;
15114;SDS011;7658;51.456;7.622;2023-06-22T05:55:47;31.02;;;22.10;;
15114;SDS011;7658;51.456;7.622;2023-06-22T05:58:13;33.28;;;24.08;;
15114;SDS011;7658;51.456;7.622;2023-06-22T06:00:40;30.48;;;22.75;;
15114;SDS011;7658;51.456;7.622;2023-06-22T06:03:06;34.20;;;23.65;;
15114;SDS011;7658;51.456;7.622;2023-06-22T06:05:33;29.50;;;22.25;;
15114;SDS011;7658;51.456;7.622;2023-06-22T06:08:00;31.95;;;22.83;;
15114;SDS011;7658;51.456;7.622;2023-06-22T06:10:26;29.58;;;22.80;;
15114;SDS011;7658;51.456;7.622;2023-06-22T06:12:54;29.45;;;23.50;;
15114;SDS011;7658;51.456;7.622;2023-06-22T06:15:20;30.92;;;23.70;;
15114;SDS011;7658;51.456;7.622;2023-06-22T06:17:51;29.42;;;24.02;;
15114;SDS011;7658;51.456;7.622;2023-06-22T06:20:19;28.40;;;22.55;;
15114;SDS011;7658;51.456;7.622;2023-06-22T06:22:49;28.95;;;22.20;;
15114;SDS011;7658;51.456;7.622;2023-06-22T06:25:15;29.58;;;22.80;;
15114;SDS011;7658;51.456;7.622;2023-06-22T06:27:42;35.75;;;24.67;;
15114;SDS011;7658;51.456;7.622;2023-06-22T06:30:09;32.45;;;25.13;;
15114;SDS011;7658;51.456;7.622;2023-06-22T06:32:39;29.85;;;22.70;;
15114;SDS011;7658;51.456;7.622;2023-06-22T06:35:06;33.15;;;25.63;;
15114;SDS011;7658;51.456;7.622;2023-06-22T06:37:35;34.28;;;26.23;;
15114;SDS011;7658;51.456;7.622;2023-06-22T06:40:03;36.95;;;26.75;;
15114;SDS011;7658;51.456;7.622;2023-06-22T06:42:30;36.22;;;27.23;;
15114;SDS011;7658;51.456;7.622;2023-06-22T06:44:56;35.17;;;26.80;;
15114;SDS011;7658;51.456;7.622;2023-06-22T06:47:22;34.47;;;26.38;;
15114;SDS011;7658;51.456;7.622;2023-06-22T06:49:48;34.65;;;27.88;;
15114;SDS011;7658;51.456;7.622;2023-06-22T06:52:14;35.70;;;27.65;;
15114;SDS011;7658;51.456;7.622;2023-06-22T06:54:39;38.72;;;29.40;;
15114;SDS011;7658;51.456;7.622;2023-06-22T06:57:07;33.42;;;25.50;;
15114;SDS011;7658;51.456;7.622;2023-06-22T06:59:35;35.83;;;28.80;;
15114;SDS011;7658;51.456;7.622;2023-06-22T07:02:01;32.33;;;25.05;;
15114;SDS011;7658;51.456;7.622;2023-06-22T07:04:27;32.55;;;26.42;;
15114;SDS011;7658;51.456;7.622;2023-06-22T07:06:53;36.38;;;26.40;;
15114;SDS011;7658;51.456;7.622;2023-06-22T07:09:18;37.35;;;28.83;;
15114;SDS011;7658;51.456;7.622;2023-06-22T07:11:44;36.60;;;28.70;;
15114;SDS011;7658;51.456;7.622;2023-06-22T07:14:10;31.05;;;25.05;;
15114;SDS011;7658;51.456;7.622;2023-06-22T07:16:35;32.90;;;28.25;;
15114;SDS011;7658;51.456;7.622;2023-06-22T07:19:01;30.23;;;24.73;;
15114;SDS011;7658;51.456;7.622;2023-06-22T07:21:27;36.53;;;27.83;;
15114;SDS011;7658;51.456;7.622;2023-06-22T07:23:53;33.05;;;27.08;;
15114;SDS011;7658;51.456;7.622;2023-06-22T07:26:19;33.95;;;27.35;;
15114;SDS011;7658;51.456;7.622;2023-06-22T07:28:45;25.45;;;21.90;;
15114;SDS011;7658;51.456;7.622;2023-06-22T07:31:11;27.75;;;22.73;;
15114;SDS011;7658;51.456;7.622;2023-06-22T07:33:37;28.75;;;24.35;;
15114;SDS011;7658;51.456;7.622;2023-06-22T07:36:03;29.77;;;23.02;;
15114;SDS011;7658;51.456;7.622;2023-06-22T07:38:32;25.48;;;21.10;;
15114;SDS011;7658;51.456;7.622;2023-06-22T07:40:59;28.33;;;23.10;;
15114;SDS011;7658;51.456;7.622;2023-06-22T07:43:25;33.08;;;26.10;;
15114;SDS011;7658;51.456;7.622;2023-06-22T07:45:51;30.42;;;25.80;;
15114;SDS011;7658;51.456;7.622;2023-06-22T07:48:19;36.20;;;29.00;;
15114;SDS011;7658;51.456;7.622;2023-06-22T07:50:46;34.90;;;28.50;;
15114;SDS011;7658;51.456;7.622;2023-06-22T07:53:11;36.35;;;28.45;;
15114;SDS011;7658;51.456;7.622;2023-06-22T07:55:37;37.95;;;29.98;;
15114;SDS011;7658;51.456;7.622;2023-06-22T07:58:03;36.72;;;27.48;;
15114;SDS011;7658;51.456;7.622;2023-06-22T08:00:28;31.83;;;28.35;;
15114;SDS011;7658;51.456;7.622;2023-06-22T08:02:54;29.73;;;25.13;;
15114;SDS011;7658;51.456;7.622;2023-06-22T08:05:21;31.10;;;24.77;;
15114;SDS011;7658;51.456;7.622;2023-06-22T08:07:47;29.65;;;25.85;;
15114;SDS011;7658;51.456;7.622;2023-06-22T08:10:13;29.73;;;26.00;;
15114;SDS011;7658;51.456;7.622;2023-06-22T08:12:39;36.28;;;30.45;;
15114;SDS011;7658;51.456;7.622;2023-06-22T08:15:05;36.70;;;27.33;;
15114;SDS011;7658;51.456;7.622;2023-06-22T08:17:32;28.25;;;23.35;;
15114;SDS011;7658;51.456;7.622;2023-06-22T08:19:58;34.80;;;29.45;;
15114;SDS011;7658;51.456;7.622;2023-06-22T08:22:24;31.25;;;25.52;;
15114;SDS011;7658;51.456;7.622;2023-06-22T08:24:50;32.17;;;27.42;;
15114;SDS011;7658;51.456;7.622;2023-06-22T08:27:16;30.83;;;26.88;;
15114;SDS011;7658;51.456;7.622;2023-06-22T08:29:43;29.30;;;23.70;;
15114;SDS011;7658;51.456;7.622;2023-06-22T08:32:11;27.75;;;23.77;;
15114;SDS011;7658;51.456;7.622;2023-06-22T08:34:37;27.63;;;24.60;;
15114;SDS011;7658;51.456;7.622;2023-06-22T08:37:07;33.78;;;27.70;;
15114;SDS011;7658;51.456;7.622;2023-06-22T08:39:34;32.40;;;25.70;;
15114;SDS011;7658;51.456;7.622;2023-06-22T08:42:00;28.75;;;24.33;;
15114;SDS011;7658;51.456;7.622;2023-06-22T08:44:25;25.27;;;20.70;;
15114;SDS011;7658;51.456;7.622;2023-06-22T08:46:51;26.52;;;22.33;;
15114;SDS011;7658;51.456;7.622;2023-06-22T08:49:17;26.65;;;22.88;;
15114;SDS011;7658;51.456;7.622;2023-06-22T08:51:42;27.52;;;23.88;;
15114;SDS011;7658;51.456;7.622;2023-06-22T08:54:10;23.17;;;20.50;;
15114;SDS011;7658;51.456;7.622;2023-06-22T08:56:36;21.13;;;18.90;;
15114;SDS011;7658;51.456;7.622;2023-06-22T08:59:02;24.30;;;20.52;;
15114;SDS011;7658;51.456;7.622;2023-06-22T09:01:28;24.58;;;19.80;;
15114;SDS011;7658;51.456;7.622;2023-06-22T09:03:53;28.27;;;21.80;;
15114;SDS011;7658;51.456;7.622;2023-06-22T09:06:21;27.80;;;22.75;;
15114;SDS011;7658;51.456;7.622;2023-06-22T09:08:47;21.52;;;19.33;;
15114;SDS011;7658;51.456;7.622;2023-06-22T09:11:14;23.60;;;20.02;;
15114;SDS011;7658;51.456;7.622;2023-06-22T09:13:39;22.58;;;19.05;;
15114;SDS011;7658;51.456;7.622;2023-06-22T09:16:05;20.75;;;17.77;;
15114;SDS011;7658;51.456;7.622;2023-06-22T09:18:31;19.58;;;17.42;;
15114;SDS011;7658;51.456;7.622;2023-06-22T09:20:58;17.65;;;15.70;;
15114;SDS011;7658;51.456;7.622;2023-06-22T09:23:24;17.75;;;15.93;;
15114;SDS011;7658;51.456;7.622;2023-06-22T09:25:50;18.08;;;16.17;;
15114;SDS011;7658;51.456;7.622;2023-06-22T09:28:16;20.80;;;17.20;;
15114;SDS011;7658;51.456;7.622;2023-06-22T09:30:45;20.98;;;17.73;;
15114;SDS011;7658;51.456;7.622;2023-06-22T09:33:11;20.17;;;17.42;;
15114;SDS011;7658;51.456;7.622;2023-06-22T09:35:37;20.73;;;16.35;;
15114;SDS011;7658;51.456;7.622;2023-06-22T09:38:02;18.95;;;16.25;;
15114;SDS011;7658;51.456;7.622;2023-06-22T09:40:28;18.42;;;16.52;;
15114;SDS011;7658;51.456;7.622;2023-06-22T09:42:54;20.25;;;16.77;;
15114;SDS011;7658;51.456;7.622;2023-06-22T09:45:19;19.92;;;17.42;;
15114;SDS011;7658;51.456;7.622;2023-06-22T09:47:45;18.30;;;16.27;;
15114;SDS011;7658;51.456;7.622;2023-06-22T09:50:11;17.15;;;14.50;;
15114;SDS011;7658;51.456;7.622;2023-06-22T09:52:37;13.82;;;12.32;;
15114;SDS011;7658;51.456;7.622;2023-06-22T09:55:04;15.88;;;13.43;;
15114;SDS011;7658;51.456;7.622;2023-06-22T09:57:31;16.63;;;12.43;;
15114;SDS011;7658;51.456;7.622;2023-06-22T09:59:57;15.55;;;12.50;;
15114;SDS011;7658;51.456;7.622;2023-06-22T10:02:23;15.15;;;12.82;;
15114;SDS011;7658;51.456;7.622;2023-06-22T10:04:49;15.63;;;11.50;;
15114;SDS011;7658;51.456;7.622;2023-06-22T10:07:14;12.05;;;10.35;;
15114;SDS011;7658;51.456;7.622;2023-06-22T10:09:40;12.75;;;11.45;;
15114;SDS011;7658;51.456;7.622;2023-06-22T10:12:07;14.50;;;11.88;;
15114;SDS011;7658;51.456;7.622;2023-06-22T10:14:33;15.15;;;11.40;;
15114;SDS011;7658;51.456;7.622;2023-06-22T10:16:59;13.77;;;11.18;;
15114;SDS011;7658;51.456;7.622;2023-06-22T10:19:25;15.20;;;13.05;;
15114;SDS011;7658;51.456;7.622;2023-06-22T10:21:51;14.55;;;11.77;;
15114;SDS011;7658;51.456;7.622;2023-06-22T10:24:17;13.75;;;11.55;;
15114;SDS011;7658;51.456;7.622;2023-06-22T10:26:42;16.05;;;12.32;;
15114;SDS011;7658;51.456;7.622;2023-06-22T10:29:08;16.17;;;13.18;;
15114;SDS011;7658;51.456;7.622;2023-06-22T10:31:34;13.98;;;11.40;;
15114;SDS011;7658;51.456;7.622;2023-06-22T10:34:00;12.80;;;10.63;;
15114;SDS011;7658;51.456;7.622;2023-06-22T10:36:25;13.60;;;11.20;;
15114;SDS011;7658;51.456;7.622;2023-06-22T10:38:51;12.88;;;10.77;;
15114;SDS011;7658;51.456;7.622;2023-06-22T10:41:18;12.25;;;9.52;;
15114;SDS011;7658;51.456;7.622;2023-06-22T10:43:44;11.02;;;9.27;;
15114;SDS011;7658;51.456;7.622;2023-06-22T10:46:10;13.15;;;9.68;;
15114;SDS011;7658;51.456;7.622;2023-06-22T10:48:35;13.57;;;11.88;;
15114;SDS011;7658;51.456;7.622;2023-06-22T10:51:01;15.52;;;12.90;;
15114;SDS011;7658;51.456;7.622;2023-06-22T10:53:27;11.40;;;10.20;;
15114;SDS011;7658;51.456;7.622;2023-06-22T10:55:53;11.93;;;10.20;;
15114;SDS011;7658;51.456;7.622;2023-06-22T10:58:19;14.85;;;11.13;;
15114;SDS011;7658;51.456;7.622;2023-06-22T11:00:45;11.93;;;10.55;;
15114;SDS011;7658;51.456;7.622;2023-06-22T11:03:11;14.05;;;11.20;;
15114;SDS011;7658;51.456;7.622;2023-06-22T11:05:39;13.30;;;10.80;;
15114;SDS011;7658;51.456;7.622;2023-06-22T11:08:05;14.52;;;11.63;;
15114;SDS011;7658;51.456;7.622;2023-06-22T11:10:30;13.10;;;11.70;;
15114;SDS011;7658;51.456;7.622;2023-06-22T11:12:56;13.65;;;11.40;;
15114;SDS011;7658;51.456;7.622;2023-06-22T11:15:23;13.07;;;10.32;;
15114;SDS011;7658;51.456;7.622;2023-06-22T11:17:49;14.73;;;11.88;;
15114;SDS011;7658;51.456;7.622;2023-06-22T11:20:15;12.68;;;10.95;;
15114;SDS011;7658;51.456;7.622;2023-06-22T11:22:41;13.00;;;11.63;;
15114;SDS011;7658;51.456;7.622;2023-06-22T11:25:07;16.58;;;13.15;;
15114;SDS011;7658;51.456;7.622;2023-06-22T11:27:34;15.00;;;10.98;;
15114;SDS011;7658;51.456;7.622;2023-06-22T11:30:00;13.85;;;11.38;;
15114;SDS011;7658;51.456;7.622;2023-06-22T11:32:25;17.42;;;13.63;;
15114;SDS011;7658;51.456;7.622;2023-06-22T11:34:51;16.40;;;14.57;;
15114;SDS011;7658;51.456;7.622;2023-06-22T11:37:17;18.05;;;14.40;;
15114;SDS011;7658;51.456;7.622;2023-06-22T11:39:43;17.23;;;13.05;;
15114;SDS011;7658;51.456;7.622;2023-06-22T11:42:09;17.13;;;14.95;;
15114;SDS011;7658;51.456;7.622;2023-06-22T11:44:35;17.08;;;14.35;;
15114;SDS011;7658;51.456;7.622;2023-06-22T11:47:01;15.15;;;13.45;;
15114;SDS011;7658;51.456;7.622;2023-06-22T11:49:32;18.30;;;15.77;;
15114;SDS011;7658;51.456;7.622;2023-06-22T11:51:58;20.40;;;16.98;;
15114;SDS011;7658;51.456;7.622;2023-06-22T11:54:23;20.60;;;18.15;;
15114;SDS011;7658;51.456;7.622;2023-06-22T11:56:49;21.13;;;17.40;;
15114;SDS011;7658;51.456;7.622;2023-06-22T11:59:15;20.17;;;17.42;;
15114;SDS011;7658;51.456;7.622;2023-06-22T12:01:41;20.98;;;18.40;;
15114;SDS011;7658;51.456;7.622;2023-06-22T12:04:06;22.13;;;17.63;;
15114;SDS011;7658;51.456;7.622;2023-06-22T12:06:32;23.58;;;19.85;;
15114;SDS011;7658;51.456;7.622;2023-06-22T12:09:00;22.63;;;19.40;;
15114;SDS011;7658;51.456;7.622;2023-06-22T12:11:26;23.50;;;20.25;;
15114;SDS011;7658;51.456;7.622;2023-06-22T12:13:52;24.75;;;20.42;;
15114;SDS011;7658;51.456;7.622;2023-06-22T12:16:17;27.67;;;21.05;;
15114;SDS011;7658;51.456;7.622;2023-06-22T12:18:43;24.38;;;20.45;;
15114;SDS011;7658;51.456;7.622;2023-06-22T12:21:09;24.38;;;20.38;;
15114;SDS011;7658;51.456;7.622;2023-06-22T12:23:35;27.90;;;22.23;;
15114;SDS011;7658;51.456;7.622;2023-06-22T12:26:01;27.20;;;21.80;;
15114;SDS011;7658;51.456;7.622;2023-06-22T12:28:26;29.45;;;23.35;;
15114;SDS011;7658;51.456;7.622;2023-06-22T12:34:14;27.88;;;22.02;;
15114;SDS011;7658;51.456;7.622;2023-06-22T12:36:40;32.35;;;21.63;;
15114;SDS011;7658;51.456;7.622;2023-06-22T12:39:05;30.75;;;23.02;;
15114;SDS011;7658;51.456;7.622;2023-06-22T12:41:31;31.25;;;22.73;;
15114;SDS011;7658;51.456;7.622;2023-06-22T12:43:57;33.17;;;25.20;;
15114;SDS011;7658;51.456;7.622;2023-06-22T12:46:23;36.67;;;25.95;;
15114;SDS011;7658;51.456;7.622;2023-06-22T12:48:48;41.38;;;26.40;;
15114;SDS011;7658;51.456;7.622;2023-06-22T12:51:20;40.80;;;25.83;;
15114;SDS011;7658;51.456;7.622;2023-06-22T12:53:47;39.83;;;27.02;;
15114;SDS011;7658;51.456;7.622;2023-06-22T12:56:13;37.53;;;26.10;;
15114;SDS011;7658;51.456;7.622;2023-06-22T12:58:38;37.55;;;27.02;;
15114;SDS011;7658;51.456;7.622;2023-06-22T13:01:04;38.53;;;27.13;;
15114;SDS011;7658;51.456;7.622;2023-06-22T13:03:30;47.00;;;29.20;;
15114;SDS011;7658;51.456;7.622;2023-06-22T13:05:56;36.35;;;26.92;;
15114;SDS011;7658;51.456;7.622;2023-06-22T13:08:21;35.85;;;27.10;;
15114;SDS011;7658;51.456;7.622;2023-06-22T13:10:47;36.67;;;29.55;;
15114;SDS011;7658;51.456;7.622;2023-06-22T13:13:14;38.25;;;27.95;;
15114;SDS011;7658;51.456;7.622;2023-06-22T13:15:40;34.67;;;25.77;;
15114;SDS011;7658;51.456;7.622;2023-06-22T13:18:06;36.47;;;27.52;;
15114;SDS011;7658;51.456;7.622;2023-06-22T13:20:31;36.13;;;27.17;;
15114;SDS011;7658;51.456;7.622;2023-06-22T13:22:57;39.50;;;27.70;;
15114;SDS011;7658;51.456;7.622;2023-06-22T13:25:23;35.53;;;28.45;;
15114;SDS011;7658;51.456;7.622;2023-06-22T13:27:53;34.85;;;27.15;;
15114;SDS011;7658;51.456;7.622;2023-06-22T13:30:18;33.58;;;26.88;;
15114;SDS011;7658;51.456;7.622;2023-06-22T13:32:44;35.92;;;26.00;;
15114;SDS011;7658;51.456;7.622;2023-06-22T13:35:10;37.05;;;26.92;;
15114;SDS011;7658;51.456;7.622;2023-06-22T13:37:37;33.65;;;27.33;;
15114;SDS011;7658;51.456;7.622;2023-06-22T13:40:03;38.50;;;28.90;;
15114;SDS011;7658;51.456;7.622;2023-06-22T13:42:32;41.33;;;29.33;;
15114;SDS011;7658;51.456;7.622;2023-06-22T13:44:58;37.22;;;28.35;;
15114;SDS011;7658;51.456;7.622;2023-06-22T13:47:24;34.15;;;27.02;;
15114;SDS011;7658;51.456;7.622;2023-06-22T13:49:50;30.85;;;25.42;;
15114;SDS011;7658;51.456;7.622;2023-06-22T13:52:16;28.85;;;23.88;;
15114;SDS011;7658;51.456;7.622;2023-06-22T13:54:41;31.50;;;25.85;;
15114;SDS011;7658;51.456;7.622;2023-06-22T13:57:07;30.45;;;24.50;;
15114;SDS011;7658;51.456;7.622;2023-06-22T13:59:33;27.20;;;23.95;;
15114;SDS011;7658;51.456;7.622;2023-06-22T14:01:59;28.55;;;23.40;;
15114;SDS011;7658;51.456;7.622;2023-06-22T14:04:25;27.05;;;22.52;;
15114;SDS011;7658;51.456;7.622;2023-06-22T14:06:51;26.48;;;21.23;;
15114;SDS011;7658;51.456;7.622;2023-06-22T14:09:17;23.10;;;18.23;;
15114;SDS011;7658;51.456;7.622;2023-06-22T14:11:42;24.42;;;20.58;;
15114;SDS011;7658;51.456;7.622;2023-06-22T14:14:08;22.23;;;19.75;;
15114;SDS011;7658;51.456;7.622;2023-06-22T14:16:34;21.27;;;18.15;;
15114;SDS011;7658;51.456;7.622;2023-06-22T14:19:00;21.65;;;18.48;;
15114;SDS011;7658;51.456;7.622;2023-06-22T14:21:25;20.45;;;17.77;;
15114;SDS011;7658;51.456;7.622;2023-06-22T14:23:51;22.23;;;19.25;;
15114;SDS011;7658;51.456;7.622;2023-06-22T14:26:17;27.10;;;19.55;;
15114;SDS011;7658;51.456;7.622;2023-06-22T14:28:45;23.60;;;19.95;;
15114;SDS011;7658;51.456;7.622;2023-06-22T14:31:18;24.58;;;19.08;;
15114;SDS011;7658;51.456;7.622;2023-06-22T14:33:48;22.85;;;20.45;;
15114;SDS011;7658;51.456;7.622;2023-06-22T14:36:15;21.75;;;19.02;;
15114;SDS011;7658;51.456;7.622;2023-06-22T14:38:42;23.70;;;20.58;;
15114;SDS011;7658;51.456;7.622;2023-06-22T14:41:09;25.77;;;19.85;;
15114;SDS011;7658;51.456;7.622;2023-06-22T14:43:36;22.90;;;19.95;;
15114;SDS011;7658;51.456;7.622;2023-06-22T14:46:02;21.83;;;18.33;;
15114;SDS011;7658;51.456;7.622;2023-06-22T14:48:28;22.77;;;19.35;;
15114;SDS011;7658;51.456;7.622;2023-06-22T14:50:54;25.45;;;21.67;;
15114;SDS011;7658;51.456;7.622;2023-06-22T14:53:20;24.92;;;21.75;;